.
WxDataArchive / Data Records for 2009-10-31
2009-10-30 October 2009 2009-11-01

Data Records for Saturday, 31 October 2009

Time	Temp	Chill	HIndex	Humid	Dewpt	 Wind 	HiWind	WindDir	Rain 	Barom 
-----	----	-----	------	-----	-----	------	------	-------	-----	----- 
00:00	55.7	55.7	55.7	79	49.3	5	13	270	0.00	29.605 
00:05	55.3	55.3	55.3	79	48.9	4	13	270	0.00	29.605 
00:10	54.8	54.8	54.8	81	49.1	3	6	248	0.00	29.605 
00:15	54.5	54.5	54.5	82	49.1	3	7	270	0.00	29.595 
00:20	54.2	54.2	54.2	82	48.8	4	10	270	0.00	29.595 
00:25	54.1	54.1	54.1	79	47.7	5	10	270	0.01	29.595 
00:30	53.8	53.8	53.8	80	47.8	3	9	270	0.00	29.600 
00:35	53.6	53.6	53.6	80	47.6	3	13	270	0.00	29.600 
00:40	53.3	53.3	53.3	81	47.6	3	10	248	0.00	29.600 
00:45	53.1	53.1	53.1	81	47.4	3	8	248	0.00	29.596 
00:50	52.9	52.9	52.9	82	47.6	2	10	248	0.01	29.596 
00:55	52.8	52.8	52.8	82	47.5	3	9	248	0.00	29.596 
01:00	52.6	52.6	52.6	83	47.6	3	6	248	0.00	29.597 
01:05	52.5	52.5	52.5	83	47.5	2	6	270	0.00	29.597 
01:10	52.5	52.5	52.5	83	47.5	3	8	248	0.00	29.597 
01:15	52.5	52.5	52.5	82	47.2	2	4	248	0.00	29.584 
01:20	52.5	52.5	52.5	82	47.2	2	6	248	0.00	29.584 
01:25	52.6	52.6	52.6	81	46.9	3	8	248	0.00	29.584 
01:30	52.8	52.8	52.8	81	47.1	2	6	248	0.00	29.592 
01:35	52.8	52.8	52.8	81	47.1	2	9	248	0.00	29.592 
01:40	52.9	52.9	52.9	81	47.2	2	6	248	0.00	29.592 
01:45	53.1	53.1	53.1	81	47.4	3	10	248	0.00	29.597 
01:50	53.1	53.1	53.1	82	47.8	2	7	248	0.00	29.597 
01:55	53.1	53.1	53.1	81	47.4	3	7	248	0.00	29.597 
02:00	53.2	53.2	53.2	81	47.5	3	11	248	0.00	29.591 
02:05	53.3	53.3	53.3	81	47.6	3	7	270	0.00	29.591 
02:10	53.3	53.3	53.3	81	47.6	3	9	248	0.00	29.591 
02:15	53.5	53.5	53.5	79	47.1	5	10	248	0.00	29.582 
02:20	53.5	53.5	53.5	79	47.1	3	6	248	0.00	29.582 
02:25	53.5	53.5	53.5	79	47.1	3	7	270	0.00	29.582 
02:30	53.5	53.5	53.5	78	46.8	4	9	270	0.00	29.597 
02:35	53.5	53.5	53.5	78	46.8	4	10	270	0.00	29.597 
02:40	53.5	53.5	53.5	78	46.8	3	9	248	0.00	29.597 
02:45	53.3	53.3	53.3	77	46.3	4	15	270	0.00	29.582 
02:50	53.5	53.5	53.5	77	46.5	4	11	270	0.00	29.582 
02:55	53.3	53.3	53.3	77	46.3	3	9	248	0.00	29.582 
03:00	53.3	53.3	53.3	77	46.3	3	8	270	0.00	29.588 
03:05	53.2	53.2	53.2	77	46.2	4	15	270	0.00	29.588 
03:10	53.2	53.2	53.2	77	46.2	5	13	248	0.00	29.588 
03:15	53.2	53.2	53.2	76	45.8	4	10	248	0.00	29.581 
03:20	53.1	53.1	53.1	76	45.7	4	11	270	0.00	29.581 
03:25	53.1	53.1	53.1	75	45.4	4	11	248	0.00	29.581 
03:30	52.9	52.9	52.9	75	45.2	4	10	270	0.00	29.579 
03:35	52.9	52.9	52.9	75	45.2	4	11	270	0.00	29.579 
03:40	52.8	52.8	52.8	74	44.7	4	10	270	0.00	29.579 
03:45	52.8	52.8	52.8	73	44.4	5	10	248	0.00	29.596 
03:50	52.8	52.8	52.8	73	44.4	3	12	248	0.00	29.596 
03:55	52.8	52.8	52.8	73	44.4	4	13	248	0.00	29.596 
04:00	52.8	52.8	52.8	74	44.7	3	10	270	0.00	29.571 
04:05	52.6	52.6	52.6	73	44.2	5	12	248	0.00	29.571 
04:10	52.6	52.6	52.6	73	44.2	3	7	270	0.00	29.571 
04:15	52.6	52.6	52.6	73	44.2	5	15	248	0.00	29.562 
04:20	52.5	52.5	52.5	72	43.7	5	12	248	0.00	29.562 
04:25	51.9	51.9	51.9	68	41.7	5	14	270	0.00	29.562 
04:30	51.1	51.1	51.1	66	40.1	5	14	270	0.00	29.589 
04:35	50.5	50.5	50.5	67	40.0	5	12	270	0.00	29.589 
04:40	50.2	50.2	50.2	65	38.9	5	11	270	0.00	29.589 
04:45	50.1	50.1	50.1	65	38.8	6	15	270	0.00	29.596 
04:50	49.9	48.8	49.9	65	38.6	4	13	270	0.00	29.596 
04:55	49.8	49.8	49.8	65	38.5	3	9	270	0.00	29.596 
05:00	49.6	48.4	49.6	65	38.3	4	11	270	0.00	29.600 
05:05	49.5	48.3	49.5	65	38.2	4	7	270	0.00	29.600 
05:10	49.4	48.2	49.4	65	38.1	4	9	270	0.00	29.600 
05:15	49.2	49.2	49.2	66	38.3	3	6	270	0.00	29.612 
05:20	49.1	49.1	49.1	67	38.6	3	7	270	0.00	29.612 
05:25	48.9	48.9	48.9	66	38.0	3	8	248	0.00	29.612 
05:30	48.8	48.8	48.8	67	38.3	3	6	292	0.00	29.611 
05:35	48.5	47.1	48.5	65	37.3	4	13	270	0.00	29.611 
05:40	48.2	46.8	48.2	64	36.6	4	9	270	0.00	29.611 
05:45	48.0	45.9	48.0	63	36.0	5	12	270	0.00	29.618 
05:50	47.9	46.4	47.9	64	36.3	4	11	270	0.00	29.618 
05:55	47.7	47.7	47.7	65	36.5	3	7	248	0.00	29.618 
06:00	47.6	47.6	47.6	65	36.4	3	7	292	0.00	29.639 
06:05	47.6	47.6	47.6	66	36.8	3	9	270	0.00	29.639 
06:10	47.6	47.6	47.6	66	36.8	3	16	270	0.00	29.639 
06:15	47.4	45.2	47.4	65	36.2	5	16	270	0.00	29.645 
06:20	47.4	45.2	47.4	65	36.2	5	12	270	0.00	29.645 
06:25	47.4	45.9	47.4	65	36.2	4	11	270	0.00	29.645 
06:30	47.3	47.3	47.3	65	36.1	3	9	270	0.00	29.646 
06:35	47.3	45.8	47.3	65	36.1	4	10	270	0.00	29.646 
06:40	47.1	47.1	47.1	65	35.9	3	9	248	0.00	29.646 
06:45	47.1	47.1	47.1	66	36.3	3	9	270	0.00	29.659 
06:50	47.1	47.1	47.1	66	36.3	3	9	270	0.00	29.659 
06:55	47.0	44.7	47.0	66	36.2	5	10	270	0.00	29.659 
07:00	46.8	46.8	46.8	67	36.4	3	7	270	0.00	29.657 
07:05	46.8	45.2	46.8	67	36.4	4	10	270	0.00	29.657 
07:10	46.7	45.1	46.7	67	36.3	4	7	270	0.00	29.657 
07:15	46.5	44.1	46.5	67	36.1	5	12	270	0.00	29.662 
07:20	46.4	44.7	46.4	67	36.0	4	13	270	0.00	29.662 
07:25	46.2	43.8	46.2	68	36.2	5	9	270	0.00	29.662 
07:30	46.2	43.8	46.2	68	36.2	5	17	270	0.00	29.678 
07:35	46.2	43.8	46.2	68	36.2	5	12	248	0.00	29.678 
07:40	46.2	43.8	46.2	68	36.2	5	15	248	0.00	29.678 
07:45	46.1	46.1	46.1	69	36.5	3	10	270	0.00	29.668 
07:50	46.1	44.4	46.1	69	36.5	4	14	270	0.00	29.668 
07:55	46.0	44.2	46.0	69	36.4	4	11	248	0.00	29.668 
08:00	46.0	44.2	46.0	69	36.4	4	11	248	0.00	29.684 
08:05	46.1	44.4	46.1	69	36.5	4	7	270	0.00	29.684 
08:10	46.1	44.4	46.1	69	36.5	4	12	270	0.00	29.684 
08:15	46.1	44.4	46.1	69	36.5	4	10	248	0.00	29.691 
08:20	46.1	44.4	46.1	69	36.5	4	11	270	0.00	29.691 
08:25	46.1	46.1	46.1	69	36.5	3	10	270	0.00	29.691 
08:30	46.1	44.4	46.1	69	36.5	4	13	248	0.00	29.697 
08:35	46.1	46.1	46.1	70	36.9	2	5	248	0.00	29.697 
08:40	46.1	44.4	46.1	70	36.9	4	9	248	0.00	29.697 
08:45	46.0	42.9	46.0	71	37.1	6	16	270	0.00	29.713 
08:50	46.0	46.0	46.0	72	37.5	3	10	270	0.00	29.713 
08:55	45.8	45.8	45.8	73	37.6	3	7	248	0.00	29.713 
09:00	45.7	43.9	45.7	73	37.5	4	14	248	0.00	29.720 
09:05	45.5	42.9	45.5	73	37.4	5	11	248	0.00	29.720 
09:10	45.4	42.8	45.4	74	37.6	5	14	248	0.00	29.720 
09:15	45.2	42.0	45.2	73	37.1	6	19	248	0.00	29.731 
09:20	45.4	42.8	45.4	73	37.3	5	13	270	0.00	29.731 
09:25	45.4	42.8	45.4	73	37.3	5	10	270	0.00	29.731 
09:30	45.4	42.2	45.4	72	36.9	6	15	270	0.00	29.742 
09:35	45.5	42.9	45.5	72	37.0	5	13	248	0.00	29.742 
09:40	45.2	42.0	45.2	73	37.1	6	14	270	0.00	29.742 
09:45	44.9	42.2	44.9	75	37.5	5	14	270	0.00	29.746 
09:50	44.8	41.5	44.8	75	37.4	6	14	270	0.00	29.746 
09:55	44.9	42.2	44.9	75	37.5	5	13	270	0.00	29.746 
10:00	45.1	43.2	45.1	75	37.7	4	11	270	0.00	29.756 
10:05	44.9	42.2	44.9	77	38.1	5	13	270	0.00	29.756 
10:10	44.2	40.2	44.2	80	38.4	7	15	270	0.00	29.756 
10:15	43.3	40.3	43.3	81	37.9	5	14	270	0.00	29.781 
10:20	42.9	40.7	42.9	80	37.2	4	12	270	0.00	29.781 
10:25	43.1	40.9	43.1	74	35.4	4	15	270	0.00	29.781 
10:30	43.3	41.1	43.3	70	34.2	4	11	270	0.00	29.776 
10:35	43.6	40.7	43.6	67	33.4	5	10	270	0.00	29.776 
10:40	43.9	41.8	43.9	66	33.3	4	9	270	0.00	29.776 
10:45	43.9	41.8	43.9	66	33.3	4	12	270	0.00	29.781 
10:50	44.2	42.2	44.2	66	33.6	4	9	270	0.00	29.781 
10:55	44.6	42.6	44.6	67	34.3	4	11	248	0.00	29.781 
11:00	45.2	43.3	45.2	65	34.1	4	10	270	0.00	29.782 
11:05	45.5	43.7	45.5	65	34.4	4	10	270	0.00	29.782 
11:10	46.0	43.5	46.0	64	34.5	5	10	270	0.00	29.782 
11:15	46.2	44.5	46.2	63	34.3	4	9	270	0.00	29.791 
11:20	46.7	44.3	46.7	60	33.6	5	10	292	0.00	29.791 
11:25	47.0	47.0	47.0	60	33.8	3	9	270	0.00	29.791 
11:30	46.8	44.5	46.8	59	33.2	5	11	248	0.00	29.795 
11:35	46.7	43.7	46.7	58	32.7	6	18	270	0.00	29.795 
11:40	46.8	44.5	46.8	60	33.7	5	16	270	0.00	29.795 
11:45	47.0	45.4	47.0	58	33.0	4	10	270	0.00	29.803 
11:50	46.5	44.1	46.5	58	32.5	5	16	270	0.00	29.803 
11:55	46.5	44.1	46.5	59	33.0	5	11	270	0.00	29.803 
12:00	46.5	44.1	46.5	59	33.0	5	12	270	0.00	29.811 
12:05	46.5	43.5	46.5	60	33.4	6	15	270	0.00	29.811 
12:10	46.8	43.9	46.8	59	33.2	6	14	270	0.00	29.811 
12:15	46.7	44.3	46.7	61	34.0	5	10	248	0.00	29.818 
12:20	46.7	45.1	46.7	59	33.1	4	10	270	0.00	29.818 
12:25	46.8	45.2	46.8	59	33.2	4	7	270	0.00	29.818 
12:30	47.0	47.0	47.0	61	34.3	3	7	270	0.00	29.827 
12:35	47.0	44.7	47.0	58	33.0	5	15	270	0.00	29.827 
12:40	46.8	46.8	46.8	58	32.8	3	10	270	0.00	29.827 
12:45	46.7	45.1	46.7	58	32.7	4	10	270	0.00	29.832 
12:50	46.7	44.3	46.7	58	32.7	5	12	270	0.00	29.832 
12:55	46.7	45.1	46.7	57	32.3	4	11	270	0.00	29.832 
13:00	46.7	45.1	46.7	57	32.3	4	7	270	0.00	29.835 
13:05	47.0	45.4	47.0	58	33.0	4	9	270	0.00	29.835 
13:10	47.0	44.7	47.0	58	33.0	5	13	270	0.00	29.835 
13:15	47.0	45.4	47.0	58	33.0	4	10	270	0.00	29.837 
13:20	46.8	44.5	46.8	57	32.4	5	13	270	0.00	29.837 
13:25	46.7	44.3	46.7	58	32.7	5	12	248	0.00	29.837 
13:30	46.8	45.2	46.8	58	32.8	4	11	270	0.00	29.844 
13:35	46.8	45.2	46.8	58	32.8	4	10	270	0.00	29.844 
13:40	46.7	44.3	46.7	58	32.7	5	11	270	0.00	29.844 
13:45	46.7	43.7	46.7	58	32.7	6	13	270	0.00	29.842 
13:50	46.7	45.1	46.7	58	32.7	4	11	270	0.00	29.842 
13:55	46.5	44.1	46.5	58	32.5	5	11	270	0.00	29.842 
14:00	46.4	44.0	46.4	59	32.9	5	10	270	0.00	29.848 
14:05	46.2	43.8	46.2	59	32.7	5	13	270	0.00	29.848 
14:10	46.2	44.5	46.2	59	32.7	4	11	270	0.00	29.848 
14:15	46.2	44.5	46.2	60	33.1	4	7	270	0.00	29.850 
14:20	46.4	46.4	46.4	59	32.9	3	7	270	0.00	29.850 
14:25	46.5	44.8	46.5	59	33.0	4	7	270	0.00	29.850 
14:30	46.5	44.8	46.5	57	32.1	4	9	270	0.00	29.853 
14:35	46.4	44.7	46.4	57	32.0	4	7	292	0.00	29.853 
14:40	46.4	46.4	46.4	58	32.4	3	7	270	0.00	29.853 
14:45	46.2	43.8	46.2	56	31.4	5	13	292	0.00	29.865 
14:50	46.2	43.8	46.2	57	31.8	5	11	270	0.00	29.865 
14:55	46.2	44.5	46.2	57	31.8	4	9	270	0.00	29.865 
15:00	46.2	46.2	46.2	56	31.4	3	5	270	0.00	29.867 
15:05	46.2	46.2	46.2	57	31.8	3	9	270	0.00	29.867 
15:10	46.4	46.4	46.4	58	32.4	2	6	270	0.00	29.867 
15:15	46.4	44.7	46.4	56	31.6	4	8	270	0.00	29.869 
15:20	46.2	46.2	46.2	56	31.4	3	9	248	0.00	29.869 
15:25	46.2	46.2	46.2	57	31.8	3	6	270	0.00	29.869 
15:30	46.5	44.8	46.5	56	31.7	4	9	270	0.00	29.875 
15:35	46.8	46.8	46.8	56	31.9	3	6	270	0.00	29.875 
15:40	46.8	46.8	46.8	56	31.9	3	5	270	0.00	29.875 
15:45	46.8	46.8	46.8	54	31.0	3	5	270	0.00	29.871 
15:50	47.0	47.0	47.0	55	31.7	1	4	248	0.00	29.871 
15:55	46.8	46.8	46.8	54	31.0	3	9	270	0.00	29.871 
16:00	47.4	47.4	47.4	54	31.6	2	4	248	0.00	29.875 
16:05	47.6	45.4	47.6	54	31.8	5	15	270	0.00	29.875 
16:10	47.7	47.7	47.7	53	31.4	3	9	270	0.00	29.875 
16:15	47.4	45.9	47.4	53	31.1	4	7	270	0.00	29.885 
16:20	46.8	46.8	46.8	53	30.6	2	9	270	0.00	29.885 
16:25	46.5	46.5	46.5	54	30.8	3	6	248	0.00	29.885 
16:30	46.4	46.4	46.4	53	30.2	3	5	270	0.00	29.897 
16:35	46.7	46.7	46.7	54	30.9	3	5	292	0.00	29.897 
16:40	47.0	45.4	47.0	52	30.3	4	10	270	0.00	29.897 
16:45	47.1	47.1	47.1	51	29.9	3	5	270	0.00	29.901 
16:50	47.0	47.0	47.0	53	30.8	2	6	248	0.00	29.901 
16:55	46.8	46.8	46.8	55	31.5	2	4	270	0.00	29.901 
17:00	46.5	46.5	46.5	55	31.2	3	7	292	0.00	29.909 
17:05	47.0	47.0	47.0	54	31.2	3	6	248	0.00	29.909 
17:10	47.6	47.6	47.6	53	31.3	3	9	270	0.00	29.909 
17:15	47.3	45.8	47.3	53	31.0	4	12	248	0.00	29.918 
17:20	47.0	45.4	47.0	53	30.8	4	7	270	0.00	29.918 
17:25	46.8	46.8	46.8	53	30.6	3	6	270	0.00	29.918 
17:30	46.8	46.8	46.8	53	30.6	3	6	270	0.00	29.927 
17:35	46.5	46.5	46.5	53	30.3	3	6	270	0.00	29.927 
17:40	46.2	46.2	46.2	54	30.5	2	5	270	0.00	29.927 
17:45	46.0	46.0	46.0	54	30.3	2	4	248	0.00	29.933 
17:50	46.0	46.0	46.0	55	30.7	1	4	225	0.00	29.933 
17:55	46.1	46.1	46.1	55	30.8	1	5	248	0.00	29.933 
18:00	46.2	46.2	46.2	54	30.5	2	5	248	0.00	29.942 
18:05	46.2	46.2	46.2	54	30.5	1	3	248	0.00	29.942 
18:10	46.1	46.1	46.1	56	31.3	1	4	338	0.00	29.942 
18:15	46.0	46.0	46.0	55	30.7	2	6	248	0.00	29.952 
18:20	46.0	46.0	46.0	54	30.3	2	7	270	0.00	29.952 
18:25	46.0	46.0	46.0	54	30.3	2	6	270	0.00	29.952 
18:30	45.8	45.8	45.8	55	30.6	2	6	248	0.00	29.967 
18:35	45.8	45.8	45.8	55	30.6	1	3	270	0.00	29.967 
18:40	45.7	45.7	45.7	55	30.5	0	2	270	0.00	29.967 
18:45	45.7	45.7	45.7	56	30.9	1	3	248	0.00	29.980 
18:50	45.5	45.5	45.5	56	30.7	1	3	248	0.00	29.980 
18:55	45.5	45.5	45.5	56	30.7	1	4	248	0.00	29.980 
19:00	45.5	45.5	45.5	55	30.3	1	3	270	0.00	29.991 
19:05	45.5	45.5	45.5	56	30.7	1	3	248	0.00	29.991 
19:10	45.4	45.4	45.4	55	30.2	1	2	248	0.00	29.991 
19:15	45.4	45.4	45.4	56	30.6	1	3	248	0.00	30.000 
19:20	45.4	45.4	45.4	56	30.6	1	5	248	0.00	30.000 
19:25	45.4	45.4	45.4	57	31.1	0	2	248	0.00	30.000 
19:30	45.2	45.2	45.2	57	30.9	0	2	248	0.00	30.005 
19:35	45.2	45.2	45.2	58	31.3	0	2	248	0.00	30.005 
19:40	45.2	45.2	45.2	57	30.9	1	5	292	0.00	30.005 
19:45	45.2	45.2	45.2	57	30.9	1	4	248	0.00	30.016 
19:50	45.2	45.2	45.2	58	31.3	1	4	270	0.00	30.016 
19:55	45.1	45.1	45.1	57	30.8	1	4	270	0.00	30.016 
20:00	45.1	45.1	45.1	58	31.2	0	1	270	0.00	30.025 
20:05	45.2	45.2	45.2	58	31.3	0	3	270	0.00	30.025 
20:10	45.2	45.2	45.2	58	31.3	0	2	270	0.00	30.025 
20:15	45.1	45.1	45.1	58	31.2	0	2	270	0.00	30.036 
20:20	45.1	45.1	45.1	57	30.8	1	4	292	0.00	30.036 
20:25	44.9	44.9	44.9	56	30.2	1	5	315	0.00	30.036 
20:30	44.8	44.8	44.8	56	30.1	2	4	270	0.00	30.046 
20:35	44.6	44.6	44.6	57	30.3	2	5	292	0.00	30.046 
20:40	44.5	44.5	44.5	57	30.2	1	7	270	0.00	30.046 
20:45	44.5	44.5	44.5	57	30.2	1	2	248	0.00	30.058 
20:50	44.3	44.3	44.3	57	30.0	1	3	248	0.00	30.058 
20:55	44.2	44.2	44.2	57	29.9	1	3	270	0.00	30.058 
21:00	44.2	44.2	44.2	57	29.9	2	5	270	0.00	30.064 
21:05	44.1	44.1	44.1	57	29.9	1	3	315	0.00	30.064 
21:10	44.1	44.1	44.1	56	29.4	1	4	338	0.00	30.064 
21:15	44.1	44.1	44.1	57	29.9	1	3	338	0.00	30.073 
21:20	43.9	43.9	43.9	57	29.7	1	4	292	0.00	30.073 
21:25	43.9	43.9	43.9	57	29.7	1	3	338	0.00	30.073 
21:30	43.8	43.8	43.8	58	30.0	1	2	315	0.00	30.080 
21:35	43.6	43.6	43.6	57	29.4	1	3	270	0.00	30.080 
21:40	43.6	43.6	43.6	57	29.4	1	3	270	0.00	30.080 
21:45	43.6	43.6	43.6	58	29.8	1	3	315	0.00	30.082 
21:50	43.5	43.5	43.5	58	29.7	1	3	315	0.00	30.082 
21:55	43.3	43.3	43.3	58	29.5	1	3	270	0.00	30.082 
22:00	43.1	43.1	43.1	59	29.8	0	1	270	0.00	30.082 
22:05	42.8	42.8	42.8	59	29.5	0	1	270	0.00	30.082 
22:10	42.5	42.5	42.5	59	29.2	0	1	270	0.00	30.082 
22:15	42.2	42.2	42.2	60	29.3	0	1	270	0.00	30.092 
22:20	42.1	42.1	42.1	61	29.6	0	2	270	0.00	30.092 
22:25	41.9	41.9	41.9	62	29.8	0	1	270	0.00	30.092 
22:30	41.8	41.8	41.8	62	29.7	0	0	---	0.00	30.097 
22:35	41.6	41.6	41.6	62	29.6	0	0	---	0.00	30.097 
22:40	41.5	41.5	41.5	63	29.9	0	1	270	0.00	30.097 
22:45	41.5	41.5	41.5	63	29.9	0	1	270	0.00	30.101 
22:50	41.2	41.2	41.2	64	30.0	0	1	270	0.00	30.101 
22:55	41.1	41.1	41.1	64	29.9	0	1	270	0.00	30.101 
23:00	41.1	41.1	41.1	63	29.5	0	1	270	0.00	30.107 
23:05	41.1	41.1	41.1	63	29.5	0	1	270	0.00	30.107 
23:10	41.1	41.1	41.1	63	29.5	0	1	270	0.00	30.107 
23:15	41.1	41.1	41.1	63	29.5	0	2	270	0.00	30.107 
23:20	41.1	41.1	41.1	63	29.5	0	1	270	0.00	30.107 
23:25	41.1	41.1	41.1	63	29.5	0	1	270	0.00	30.107 
23:30	41.1	41.1	41.1	63	29.5	0	2	270	0.00	30.107 
23:35	41.1	41.1	41.1	63	29.5	0	2	270	0.00	30.107 
23:40	40.8	40.8	40.8	64	29.6	0	0	---	0.00	30.107 
23:45	40.6	40.6	40.6	64	29.4	0	1	270	0.00	30.111 
23:50	40.3	40.3	40.3	64	29.1	0	0	---	0.00	30.111 
23:55	40.2	40.2	40.2	65	29.4	0	1	270	0.00	30.111 

CoCoRaHS
IN-AL-39
A2 Web Hosting
Creative Commons License
GoDaddy
search engine by freefind advanced

loaded 2018-11-12 19:55:33 • last modified 2010-11-18 10:43:29
Privacy PolicyDisclaimer
• wx.awcolley.com is powered by PmWiki v.2002016 •
• all content (unless otherwise noted) © 2018 A W Colley